METAR Data
IDs: Format: Raw Decoded Include TAF

Data at: 1240 UTC 21 Oct 2018

KPWG 211156Z AUTO 35004KT 10SM CLR 09/08 A3032 RMK AO2 SLP284 T00890083 10139 20089 53007
KPWG 211056Z AUTO 33003KT 10SM CLR 10/09 A3031 RMK AO2 SLP278 T01000089
KPWG 210956Z AUTO 36005KT 10SM CLR 11/09 A3030 RMK AO2 SLP274 T01060094
KPWG 210856Z AUTO 35004KT 10SM CLR 12/10 A3030 RMK AO2 SLP275 T01170100 50001
KPWG 210756Z AUTO 33005KT 10SM CLR 12/11 A3031 RMK AO2 SLP276 T01220106
KPWG 210656Z AUTO 35005KT 10SM CLR 12/11 A3030 RMK AO2 SLP275 T01220111
KPWG 210556Z AUTO 34006KT 10SM CLR 14/11 A3030 RMK AO2 SLP274 T01390111 10183 20139 402000139 50006
KPWG 210456Z AUTO 36006KT 10SM CLR 14/12 A3030 RMK AO2 SLP275 T01390117
KPWG 210356Z AUTO 36007KT 10SM CLR 15/12 A3030 RMK AO2 SLP275 T01500122
KPWG 210256Z AUTO 35006KT 10SM CLR 15/13 A3028 RMK AO2 SLP268 T01500133 53019
KPWG 210156Z AUTO 35006KT 10SM CLR 16/14 A3026 RMK AO2 SLP262 T01610139
KPWG 210056Z AUTO 36007KT 10SM CLR 17/15 A3024 RMK AO2 SLP253 T01720150
KPWG 202356Z AUTO 00000KT 10SM CLR 18/16 A3022 RMK AO2 SLP247 T01830156 10200 20172 53009
KPWG 202256Z AUTO 36010KT 10SM CLR 19/16 A3021 RMK AO2 SLP240 T01940161
KPWG 202156Z AUTO 02010KT 10SM FEW001 19/15 A3020 RMK AO2 SLP239 T01940150
KPWG 202109Z AUTO 02010KT 10SM FEW022 19/16 A3020 RMK AO2
KPWG 202056Z AUTO 36013KT 10SM BKN022 19/15 A3020 RMK AO2 SLP237 T01890150 56009
KPWG 201956Z AUTO 01013KT 10SM OVC020 18/15 A3020 RMK AO2 SLP239 T01830150
KPWG 201856Z AUTO 03010KT 10SM OVC016 18/16 A3021 RMK AO2 SLP242 T01780156
KPWG 201756Z AUTO 35011KT 10SM OVC018 18/16 A3022 RMK AO2 SLP247 T01780156 10178 20156 58003
KPWG 201656Z AUTO 01009KT 10SM OVC016 17/15 A3023 RMK AO2 SLP250 T01720150
KPWG 201556Z AUTO 36011KT 10SM OVC016 17/15 A3024 RMK AO2 SLP254 T01670150
KPWG 201508Z AUTO 01009KT 10SM SCT010 OVC016 16/15 A3023 RMK AO2
KPWG 201456Z AUTO 36010KT 10SM OVC009 16/15 A3023 RMK AO2 CIG 006V013 SLP251 T01560150 53018
KPWG 201356Z AUTO 01011KT 9SM OVC009 16/15 A3021 RMK AO2 CIG 007V011 SLP243 T01560150
KPWG 201323Z AUTO 35009KT 9SM BKN009 OVC013 16/16 A3020 RMK AO2 CIG 008V013
KPWG 201319Z AUTO 35008KT 8SM OVC013 16/16 A3020 RMK AO2
KPWG 201256Z AUTO 36007KT 6SM BR OVC015 16/16 A3018 RMK AO2 SLP234 T01560156
KPWG 201230Z AUTO 35005KT 7SM FEW004 OVC013 16/15 A3018 RMK AO2
KPWG 201156Z AUTO 36009KT 7SM OVC004 16/ A3018 RMK AO2 SLP233 70117 T0156 10156 20156 53009
KPWG 201130Z AUTO 35007KT 10SM BKN006 OVC024 16/16 A3017 RMK AO2
KPWG 201056Z AUTO 35006KT 10SM FEW008 BKN024 OVC046 16/16 A3017 RMK AO2 SLP229 T01560156
KPWG 201013Z AUTO 33006KT 10SM BKN024 OVC039 16/16 A3016 RMK AO2
KPWG 200956Z AUTO 34005KT 10SM FEW024 BKN039 OVC060 16/16 A3015 RMK AO2 SLP224 T01560156
KPWG 200942Z AUTO 34005KT 10SM FEW004 SCT039 OVC060 16/16 A3015 RMK AO2
KPWG 200856Z AUTO 00000KT 10SM SCT004 OVC020 16/16 A3015 RMK AO2 SLP223 T01560156 58000
KPWG 200844Z AUTO 33003KT 10SM SCT004 OVC020 16/16 A3015 RMK AO2
KPWG 200756Z AUTO 00000KT 10SM BKN004 BKN017 OVC075 16/16 A3015 RMK AO2 SLP224 T01560156
KPWG 200751Z AUTO 00000KT 10SM BKN004 BKN017 OVC075 16/16 A3015 RMK AO2
KPWG 200656Z AUTO 10SM OVC017 16/16 A3015 RMK AO2 SLP224 T01560156
KPWG 200606Z AUTO 8SM SCT004 OVC015 16/16 A3016 RMK AO2 $
KPWG 200556Z AUTO 8SM BKN004 OVC013 16/16 A3016 RMK AO2 SLP226 T01560156 10156 20150 401560144 55001 $
KPWG 200546Z AUTO 9SM BKN004 OVC015 16/16 A3016 RMK AO2 401560144 $
KPWG 200509Z AUTO 35003KT 7SM FEW004 BKN015 16/16 A3016 RMK AO2
KPWG 200456Z AUTO 36003KT 6SM BR SCT004 SCT015 16/16 A3016 RMK AO2 SLP226 T01560156
KPWG 200356Z AUTO 00000KT 9SM FEW015 SCT090 16/16 A3016 RMK AO2 SLP228 T01560156
KPWG 200256Z AUTO 00000KT 10SM FEW015 BKN090 BKN110 16/16 A3017 RMK AO2 SLP229 T01560156 51007
KPWG 200221Z AUTO 00000KT 10SM FEW006 BKN075 BKN100 16/16 A3016 RMK AO2
KPWG 200156Z AUTO 00000KT 10SM OVC008 16/16 A3016 RMK AO2 CIG 006V010 SLP227 T01560156
KPWG 200056Z AUTO 00000KT 10SM BKN010 BKN014 OVC028 16/16 A3016 RMK AO2 SLP228 T01560156